sensor_id;sensor_type;location;lat;lon;timestamp;P1;durP1;ratioP1;P2;durP2;ratioP2
14066;SDS011;7108;42.684;23.350;2022-09-27T00:00:24;232.17;;;104.30;;
14066;SDS011;7108;42.684;23.350;2022-09-27T00:02:49;233.30;;;106.60;;
14066;SDS011;7108;42.684;23.350;2022-09-27T00:05:15;255.67;;;105.67;;
14066;SDS011;7108;42.684;23.350;2022-09-27T00:07:41;253.93;;;109.83;;
14066;SDS011;7108;42.684;23.350;2022-09-27T00:10:08;271.97;;;109.47;;
14066;SDS011;7108;42.684;23.350;2022-09-27T00:12:34;246.10;;;108.60;;
14066;SDS011;7108;42.684;23.350;2022-09-27T00:15:00;238.00;;;104.30;;
14066;SDS011;7108;42.684;23.350;2022-09-27T00:17:26;226.13;;;101.10;;
14066;SDS011;7108;42.684;23.350;2022-09-27T00:19:52;226.60;;;104.63;;
14066;SDS011;7108;42.684;23.350;2022-09-27T00:22:20;228.00;;;103.57;;
14066;SDS011;7108;42.684;23.350;2022-09-27T00:24:46;235.40;;;107.43;;
14066;SDS011;7108;42.684;23.350;2022-09-27T00:27:12;264.53;;;109.50;;
14066;SDS011;7108;42.684;23.350;2022-09-27T00:29:37;242.50;;;105.37;;
14066;SDS011;7108;42.684;23.350;2022-09-27T00:32:02;260.63;;;108.90;;
14066;SDS011;7108;42.684;23.350;2022-09-27T00:34:28;226.50;;;105.00;;
14066;SDS011;7108;42.684;23.350;2022-09-27T00:36:53;218.87;;;101.20;;
14066;SDS011;7108;42.684;23.350;2022-09-27T00:39:19;222.17;;;103.20;;
14066;SDS011;7108;42.684;23.350;2022-09-27T00:41:45;228.80;;;101.53;;
14066;SDS011;7108;42.684;23.350;2022-09-27T00:46:50;224.17;;;101.63;;
14066;SDS011;7108;42.684;23.350;2022-09-27T00:52:12;259.20;;;106.03;;
14066;SDS011;7108;42.684;23.350;2022-09-27T00:54:41;251.10;;;108.37;;
14066;SDS011;7108;42.684;23.350;2022-09-27T00:57:11;273.00;;;109.47;;
14066;SDS011;7108;42.684;23.350;2022-09-27T00:59:44;239.70;;;105.13;;
14066;SDS011;7108;42.684;23.350;2022-09-27T01:02:25;223.87;;;102.87;;
14066;SDS011;7108;42.684;23.350;2022-09-27T01:04:51;220.33;;;103.67;;
14066;SDS011;7108;42.684;23.350;2022-09-27T01:07:17;239.33;;;103.90;;
14066;SDS011;7108;42.684;23.350;2022-09-27T01:09:43;254.47;;;107.33;;
14066;SDS011;7108;42.684;23.350;2022-09-27T01:31:21;221.50;;;101.40;;
14066;SDS011;7108;42.684;23.350;2022-09-27T01:33:52;234.73;;;101.57;;
14066;SDS011;7108;42.684;23.350;2022-09-27T01:39:19;267.50;;;103.17;;
14066;SDS011;7108;42.684;23.350;2022-09-27T01:42:25;256.13;;;98.73;;
14066;SDS011;7108;42.684;23.350;2022-09-27T01:45:00;216.20;;;97.07;;
14066;SDS011;7108;42.684;23.350;2022-09-27T01:47:38;234.73;;;99.97;;
14066;SDS011;7108;42.684;23.350;2022-09-27T01:50:13;241.13;;;102.17;;
14066;SDS011;7108;42.684;23.350;2022-09-27T01:53:06;223.80;;;96.83;;
14066;SDS011;7108;42.684;23.350;2022-09-27T01:55:36;221.30;;;98.00;;
14066;SDS011;7108;42.684;23.350;2022-09-27T01:58:09;241.47;;;100.17;;
14066;SDS011;7108;42.684;23.350;2022-09-27T02:00:38;227.27;;;98.37;;
14066;SDS011;7108;42.684;23.350;2022-09-27T02:03:11;244.87;;;102.87;;
14066;SDS011;7108;42.684;23.350;2022-09-27T02:05:45;229.23;;;98.47;;
14066;SDS011;7108;42.684;23.350;2022-09-27T02:08:33;236.70;;;100.43;;
14066;SDS011;7108;42.684;23.350;2022-09-27T02:11:08;259.00;;;102.60;;
14066;SDS011;7108;42.684;23.350;2022-09-27T02:18:56;227.17;;;97.90;;
14066;SDS011;7108;42.684;23.350;2022-09-27T02:21:48;237.00;;;98.43;;
14066;SDS011;7108;42.684;23.350;2022-09-27T02:27:31;219.80;;;99.33;;
14066;SDS011;7108;42.684;23.350;2022-09-27T02:30:01;224.60;;;99.33;;
14066;SDS011;7108;42.684;23.350;2022-09-27T02:32:31;230.13;;;99.53;;
14066;SDS011;7108;42.684;23.350;2022-09-27T02:35:01;238.63;;;100.73;;
14066;SDS011;7108;42.684;23.350;2022-09-27T02:37:31;226.93;;;96.27;;
14066;SDS011;7108;42.684;23.350;2022-09-27T02:39:57;215.53;;;95.53;;
14066;SDS011;7108;42.684;23.350;2022-09-27T02:42:23;227.23;;;99.53;;
14066;SDS011;7108;42.684;23.350;2022-09-27T02:44:49;212.87;;;97.20;;
14066;SDS011;7108;42.684;23.350;2022-09-27T02:47:29;250.87;;;101.13;;
14066;SDS011;7108;42.684;23.350;2022-09-27T02:50:13;246.07;;;102.77;;
14066;SDS011;7108;42.684;23.350;2022-09-27T02:55:48;234.70;;;98.40;;
14066;SDS011;7108;42.684;23.350;2022-09-27T02:58:33;232.77;;;95.20;;
14066;SDS011;7108;42.684;23.350;2022-09-27T03:01:16;248.40;;;102.30;;
14066;SDS011;7108;42.684;23.350;2022-09-27T03:04:01;237.87;;;95.73;;
14066;SDS011;7108;42.684;23.350;2022-09-27T03:06:35;240.57;;;97.77;;
14066;SDS011;7108;42.684;23.350;2022-09-27T03:09:11;264.83;;;103.80;;
14066;SDS011;7108;42.684;23.350;2022-09-27T03:11:38;232.23;;;97.13;;
14066;SDS011;7108;42.684;23.350;2022-09-27T03:14:03;249.77;;;105.10;;
14066;SDS011;7108;42.684;23.350;2022-09-27T03:16:29;239.70;;;100.77;;
14066;SDS011;7108;42.684;23.350;2022-09-27T03:18:54;223.07;;;104.47;;
14066;SDS011;7108;42.684;23.350;2022-09-27T03:21:19;245.90;;;108.97;;
14066;SDS011;7108;42.684;23.350;2022-09-27T03:23:45;236.63;;;112.47;;
14066;SDS011;7108;42.684;23.350;2022-09-27T03:26:10;231.40;;;100.70;;
14066;SDS011;7108;42.684;23.350;2022-09-27T03:28:36;246.87;;;103.30;;
14066;SDS011;7108;42.684;23.350;2022-09-27T03:31:01;247.03;;;104.33;;
14066;SDS011;7108;42.684;23.350;2022-09-27T03:33:26;221.10;;;103.10;;
14066;SDS011;7108;42.684;23.350;2022-09-27T03:35:52;221.03;;;101.83;;
14066;SDS011;7108;42.684;23.350;2022-09-27T03:38:17;264.13;;;105.63;;
14066;SDS011;7108;42.684;23.350;2022-09-27T03:40:43;241.40;;;105.27;;
14066;SDS011;7108;42.684;23.350;2022-09-27T03:43:08;259.13;;;104.70;;
14066;SDS011;7108;42.684;23.350;2022-09-27T03:45:33;261.13;;;117.03;;
14066;SDS011;7108;42.684;23.350;2022-09-27T03:47:59;276.50;;;134.30;;
14066;SDS011;7108;42.684;23.350;2022-09-27T03:50:25;237.23;;;106.73;;
14066;SDS011;7108;42.684;23.350;2022-09-27T03:52:50;222.73;;;99.87;;
14066;SDS011;7108;42.684;23.350;2022-09-27T03:55:15;268.73;;;108.53;;
14066;SDS011;7108;42.684;23.350;2022-09-27T03:57:43;254.57;;;111.40;;
14066;SDS011;7108;42.684;23.350;2022-09-27T04:00:10;256.30;;;106.27;;
14066;SDS011;7108;42.684;23.350;2022-09-27T04:02:36;243.97;;;106.87;;
14066;SDS011;7108;42.684;23.350;2022-09-27T04:05:02;263.20;;;110.63;;
14066;SDS011;7108;42.684;23.350;2022-09-27T04:07:27;220.63;;;101.13;;
14066;SDS011;7108;42.684;23.350;2022-09-27T04:09:53;227.50;;;101.20;;
14066;SDS011;7108;42.684;23.350;2022-09-27T04:12:19;235.30;;;104.80;;
14066;SDS011;7108;42.684;23.350;2022-09-27T04:14:44;233.07;;;103.27;;
14066;SDS011;7108;42.684;23.350;2022-09-27T04:17:10;266.07;;;107.67;;
14066;SDS011;7108;42.684;23.350;2022-09-27T04:19:35;240.50;;;105.83;;
14066;SDS011;7108;42.684;23.350;2022-09-27T04:22:01;242.73;;;105.50;;
14066;SDS011;7108;42.684;23.350;2022-09-27T04:24:27;240.40;;;107.37;;
14066;SDS011;7108;42.684;23.350;2022-09-27T04:26:52;234.40;;;103.50;;
14066;SDS011;7108;42.684;23.350;2022-09-27T04:29:18;266.80;;;107.67;;
14066;SDS011;7108;42.684;23.350;2022-09-27T04:31:43;241.10;;;106.50;;
14066;SDS011;7108;42.684;23.350;2022-09-27T04:34:09;256.23;;;107.60;;
14066;SDS011;7108;42.684;23.350;2022-09-27T04:36:35;242.93;;;107.53;;
14066;SDS011;7108;42.684;23.350;2022-09-27T04:39:02;227.30;;;103.13;;
14066;SDS011;7108;42.684;23.350;2022-09-27T04:41:29;234.93;;;106.10;;
14066;SDS011;7108;42.684;23.350;2022-09-27T04:43:55;224.57;;;104.90;;
14066;SDS011;7108;42.684;23.350;2022-09-27T04:46:21;240.27;;;106.90;;
14066;SDS011;7108;42.684;23.350;2022-09-27T04:48:47;245.93;;;107.40;;
14066;SDS011;7108;42.684;23.350;2022-09-27T04:51:13;277.90;;;113.00;;
14066;SDS011;7108;42.684;23.350;2022-09-27T04:53:43;249.97;;;107.77;;
14066;SDS011;7108;42.684;23.350;2022-09-27T04:56:09;266.60;;;110.73;;
14066;SDS011;7108;42.684;23.350;2022-09-27T04:58:36;258.40;;;108.70;;
14066;SDS011;7108;42.684;23.350;2022-09-27T05:01:02;249.63;;;111.57;;
14066;SDS011;7108;42.684;23.350;2022-09-27T05:03:28;227.77;;;103.53;;
14066;SDS011;7108;42.684;23.350;2022-09-27T05:05:55;225.43;;;104.17;;
14066;SDS011;7108;42.684;23.350;2022-09-27T05:08:23;231.50;;;104.60;;
14066;SDS011;7108;42.684;23.350;2022-09-27T05:10:48;223.07;;;104.80;;
14066;SDS011;7108;42.684;23.350;2022-09-27T05:13:14;263.40;;;108.00;;
14066;SDS011;7108;42.684;23.350;2022-09-27T05:15:40;251.17;;;111.07;;
14066;SDS011;7108;42.684;23.350;2022-09-27T05:18:06;252.73;;;112.77;;
14066;SDS011;7108;42.684;23.350;2022-09-27T05:20:33;237.20;;;110.97;;
14066;SDS011;7108;42.684;23.350;2022-09-27T05:22:59;241.97;;;111.17;;
14066;SDS011;7108;42.684;23.350;2022-09-27T05:25:25;232.90;;;114.33;;
14066;SDS011;7108;42.684;23.350;2022-09-27T05:27:50;234.57;;;111.47;;
14066;SDS011;7108;42.684;23.350;2022-09-27T05:30:16;265.70;;;116.23;;
14066;SDS011;7108;42.684;23.350;2022-09-27T05:32:41;244.67;;;115.30;;
14066;SDS011;7108;42.684;23.350;2022-09-27T05:35:08;260.43;;;114.60;;
14066;SDS011;7108;42.684;23.350;2022-09-27T05:37:33;249.23;;;118.10;;
14066;SDS011;7108;42.684;23.350;2022-09-27T05:39:59;231.87;;;114.90;;
14066;SDS011;7108;42.684;23.350;2022-09-27T05:42:25;235.13;;;110.23;;
14066;SDS011;7108;42.684;23.350;2022-09-27T05:44:50;228.20;;;108.37;;
14066;SDS011;7108;42.684;23.350;2022-09-27T05:47:16;273.20;;;117.37;;
14066;SDS011;7108;42.684;23.350;2022-09-27T05:49:41;242.90;;;112.57;;
14066;SDS011;7108;42.684;23.350;2022-09-27T05:52:07;268.40;;;116.30;;
14066;SDS011;7108;42.684;23.350;2022-09-27T05:54:32;238.50;;;109.17;;
14066;SDS011;7108;42.684;23.350;2022-09-27T05:56:58;236.87;;;112.60;;
14066;SDS011;7108;42.684;23.350;2022-09-27T05:59:24;227.73;;;111.97;;
14066;SDS011;7108;42.684;23.350;2022-09-27T06:01:50;221.63;;;105.97;;
14066;SDS011;7108;42.684;23.350;2022-09-27T06:04:17;268.70;;;112.17;;
14066;SDS011;7108;42.684;23.350;2022-09-27T06:06:42;249.70;;;113.43;;
14066;SDS011;7108;42.684;23.350;2022-09-27T06:09:15;282.13;;;113.20;;
14066;SDS011;7108;42.684;23.350;2022-09-27T06:11:41;246.03;;;110.20;;
14066;SDS011;7108;42.684;23.350;2022-09-27T06:14:09;268.27;;;113.27;;
14066;SDS011;7108;42.684;23.350;2022-09-27T06:16:38;240.73;;;107.80;;
14066;SDS011;7108;42.684;23.350;2022-09-27T06:19:03;254.43;;;109.67;;
14066;SDS011;7108;42.684;23.350;2022-09-27T06:21:29;235.53;;;108.27;;
14066;SDS011;7108;42.684;23.350;2022-09-27T06:23:57;230.50;;;109.10;;
14066;SDS011;7108;42.684;23.350;2022-09-27T06:26:26;233.93;;;108.10;;
14066;SDS011;7108;42.684;23.350;2022-09-27T06:28:52;239.40;;;112.57;;
14066;SDS011;7108;42.684;23.350;2022-09-27T06:31:18;266.07;;;113.90;;
14066;SDS011;7108;42.684;23.350;2022-09-27T06:33:44;259.67;;;114.93;;
14066;SDS011;7108;42.684;23.350;2022-09-27T06:36:10;320.33;;;130.67;;
14066;SDS011;7108;42.684;23.350;2022-09-27T06:38:35;292.80;;;121.73;;
14066;SDS011;7108;42.684;23.350;2022-09-27T06:41:05;294.23;;;122.30;;
14066;SDS011;7108;42.684;23.350;2022-09-27T06:43:31;299.60;;;128.37;;
14066;SDS011;7108;42.684;23.350;2022-09-27T06:46:01;291.00;;;130.20;;
14066;SDS011;7108;42.684;23.350;2022-09-27T06:48:30;294.60;;;131.03;;
14066;SDS011;7108;42.684;23.350;2022-09-27T06:51:01;293.30;;;120.17;;
14066;SDS011;7108;42.684;23.350;2022-09-27T06:53:27;276.63;;;117.67;;
14066;SDS011;7108;42.684;23.350;2022-09-27T06:55:56;272.37;;;119.00;;
14066;SDS011;7108;42.684;23.350;2022-09-27T06:58:24;272.97;;;117.83;;
14066;SDS011;7108;42.684;23.350;2022-09-27T07:01:08;304.93;;;117.70;;
14066;SDS011;7108;42.684;23.350;2022-09-27T07:03:34;274.43;;;119.20;;
14066;SDS011;7108;42.684;23.350;2022-09-27T07:06:04;290.77;;;118.33;;
14066;SDS011;7108;42.684;23.350;2022-09-27T07:08:30;278.10;;;118.77;;
14066;SDS011;7108;42.684;23.350;2022-09-27T07:11:00;283.33;;;119.47;;
14066;SDS011;7108;42.684;23.350;2022-09-27T07:13:27;275.20;;;118.20;;
14066;SDS011;7108;42.684;23.350;2022-09-27T07:15:55;274.03;;;116.10;;
14066;SDS011;7108;42.684;23.350;2022-09-27T07:18:20;287.80;;;117.07;;
14066;SDS011;7108;42.684;23.350;2022-09-27T07:20:49;284.50;;;118.20;;
14066;SDS011;7108;42.684;23.350;2022-09-27T07:23:17;294.07;;;119.07;;
14066;SDS011;7108;42.684;23.350;2022-09-27T07:25:44;278.97;;;115.03;;
14066;SDS011;7108;42.684;23.350;2022-09-27T07:28:14;323.43;;;119.57;;
14066;SDS011;7108;42.684;23.350;2022-09-27T07:30:44;289.37;;;118.00;;
14066;SDS011;7108;42.684;23.350;2022-09-27T07:33:09;317.77;;;127.73;;
14066;SDS011;7108;42.684;23.350;2022-09-27T07:35:39;309.60;;;128.57;;
14066;SDS011;7108;42.684;23.350;2022-09-27T07:38:05;320.80;;;132.40;;
14066;SDS011;7108;42.684;23.350;2022-09-27T07:40:37;287.73;;;125.77;;
14066;SDS011;7108;42.684;23.350;2022-09-27T07:43:04;308.97;;;131.43;;
14066;SDS011;7108;42.684;23.350;2022-09-27T07:45:30;296.33;;;129.03;;
14066;SDS011;7108;42.684;23.350;2022-09-27T07:47:56;278.17;;;126.93;;
14066;SDS011;7108;42.684;23.350;2022-09-27T07:50:24;255.00;;;122.27;;
14066;SDS011;7108;42.684;23.350;2022-09-27T07:52:50;264.77;;;124.10;;
14066;SDS011;7108;42.684;23.350;2022-09-27T07:55:17;307.50;;;130.53;;
14066;SDS011;7108;42.684;23.350;2022-09-27T07:57:46;249.27;;;119.53;;
14066;SDS011;7108;42.684;23.350;2022-09-27T08:00:13;290.90;;;130.60;;
14066;SDS011;7108;42.684;23.350;2022-09-27T08:02:40;257.67;;;124.43;;
14066;SDS011;7108;42.684;23.350;2022-09-27T08:05:09;274.53;;;126.07;;
14066;SDS011;7108;42.684;23.350;2022-09-27T08:07:36;253.90;;;124.10;;
14066;SDS011;7108;42.684;23.350;2022-09-27T08:10:03;257.13;;;119.97;;
14066;SDS011;7108;42.684;23.350;2022-09-27T08:12:30;234.13;;;116.00;;
14066;SDS011;7108;42.684;23.350;2022-09-27T08:14:55;233.77;;;121.57;;
14066;SDS011;7108;42.684;23.350;2022-09-27T08:17:25;228.40;;;116.60;;
14066;SDS011;7108;42.684;23.350;2022-09-27T08:19:54;233.63;;;120.07;;
14066;SDS011;7108;42.684;23.350;2022-09-27T08:22:22;267.13;;;126.40;;
14066;SDS011;7108;42.684;23.350;2022-09-27T08:24:48;250.63;;;121.83;;
14066;SDS011;7108;42.684;23.350;2022-09-27T08:27:14;287.17;;;123.57;;
14066;SDS011;7108;42.684;23.350;2022-09-27T08:29:40;246.53;;;117.73;;
14066;SDS011;7108;42.684;23.350;2022-09-27T08:32:09;260.20;;;121.27;;
14066;SDS011;7108;42.684;23.350;2022-09-27T08:34:35;254.87;;;122.13;;
14066;SDS011;7108;42.684;23.350;2022-09-27T08:37:01;251.37;;;123.20;;
14066;SDS011;7108;42.684;23.350;2022-09-27T08:39:27;241.13;;;121.37;;
14066;SDS011;7108;42.684;23.350;2022-09-27T08:49:40;260.87;;;127.57;;
14066;SDS011;7108;42.684;23.350;2022-09-27T08:52:19;256.53;;;122.67;;
14066;SDS011;7108;42.684;23.350;2022-09-27T08:57:54;281.57;;;131.67;;
14066;SDS011;7108;42.684;23.350;2022-09-27T09:00:24;284.30;;;130.87;;
14066;SDS011;7108;42.684;23.350;2022-09-27T09:02:52;291.50;;;131.80;;
14066;SDS011;7108;42.684;23.350;2022-09-27T09:05:29;267.13;;;129.63;;
14066;SDS011;7108;42.684;23.350;2022-09-27T09:10:54;279.20;;;127.70;;
14066;SDS011;7108;42.684;23.350;2022-09-27T09:16:36;295.47;;;137.70;;
14066;SDS011;7108;42.684;23.350;2022-09-27T09:25:21;306.57;;;130.90;;
14066;SDS011;7108;42.684;23.350;2022-09-27T09:33:53;245.60;;;120.13;;
14066;SDS011;7108;42.684;23.350;2022-09-27T09:39:11;290.63;;;128.93;;
14066;SDS011;7108;42.684;23.350;2022-09-27T09:41:58;259.80;;;125.77;;
14066;SDS011;7108;42.684;23.350;2022-09-27T09:44:42;249.17;;;123.87;;
14066;SDS011;7108;42.684;23.350;2022-09-27T09:47:32;239.53;;;122.73;;
14066;SDS011;7108;42.684;23.350;2022-09-27T09:50:23;243.27;;;121.33;;
14066;SDS011;7108;42.684;23.350;2022-09-27T09:53:11;262.00;;;124.57;;
14066;SDS011;7108;42.684;23.350;2022-09-27T09:55:51;254.73;;;123.37;;
14066;SDS011;7108;42.684;23.350;2022-09-27T09:58:47;264.50;;;130.53;;
14066;SDS011;7108;42.684;23.350;2022-09-27T10:01:22;273.43;;;126.37;;
14066;SDS011;7108;42.684;23.350;2022-09-27T10:07:04;254.57;;;122.67;;
14066;SDS011;7108;42.684;23.350;2022-09-27T10:09:30;252.80;;;124.63;;
14066;SDS011;7108;42.684;23.350;2022-09-27T10:11:57;245.10;;;126.80;;
14066;SDS011;7108;42.684;23.350;2022-09-27T10:14:24;253.27;;;129.00;;
14066;SDS011;7108;42.684;23.350;2022-09-27T10:16:56;250.57;;;128.63;;
14066;SDS011;7108;42.684;23.350;2022-09-27T10:19:26;235.60;;;122.37;;
14066;SDS011;7108;42.684;23.350;2022-09-27T10:21:55;241.33;;;124.93;;
14066;SDS011;7108;42.684;23.350;2022-09-27T10:24:26;276.07;;;133.67;;
14066;SDS011;7108;42.684;23.350;2022-09-27T10:26:53;279.10;;;129.90;;
14066;SDS011;7108;42.684;23.350;2022-09-27T10:29:24;292.10;;;135.10;;
14066;SDS011;7108;42.684;23.350;2022-09-27T10:31:54;296.20;;;132.10;;
14066;SDS011;7108;42.684;23.350;2022-09-27T10:34:32;310.97;;;131.33;;
14066;SDS011;7108;42.684;23.350;2022-09-27T10:39:37;301.70;;;130.13;;
14066;SDS011;7108;42.684;23.350;2022-09-27T10:45:20;274.53;;;133.13;;
14066;SDS011;7108;42.684;23.350;2022-09-27T10:47:46;291.77;;;133.20;;
14066;SDS011;7108;42.684;23.350;2022-09-27T10:50:52;318.47;;;133.73;;
14066;SDS011;7108;42.684;23.350;2022-09-27T10:53:19;319.77;;;130.40;;
14066;SDS011;7108;42.684;23.350;2022-09-27T10:55:46;304.60;;;134.77;;
14066;SDS011;7108;42.684;23.350;2022-09-27T10:58:23;323.00;;;140.27;;
14066;SDS011;7108;42.684;23.350;2022-09-27T11:01:00;278.07;;;127.93;;
14066;SDS011;7108;42.684;23.350;2022-09-27T11:03:48;308.30;;;136.10;;
14066;SDS011;7108;42.684;23.350;2022-09-27T11:08:51;299.27;;;129.03;;
14066;SDS011;7108;42.684;23.350;2022-09-27T11:11:25;316.70;;;133.13;;
14066;SDS011;7108;42.684;23.350;2022-09-27T11:14:08;276.47;;;126.10;;
14066;SDS011;7108;42.684;23.350;2022-09-27T11:24:39;278.97;;;121.97;;
14066;SDS011;7108;42.684;23.350;2022-09-27T11:27:39;334.50;;;135.03;;
14066;SDS011;7108;42.684;23.350;2022-09-27T11:30:14;333.27;;;133.17;;
14066;SDS011;7108;42.684;23.350;2022-09-27T11:36:10;320.60;;;128.93;;
14066;SDS011;7108;42.684;23.350;2022-09-27T11:38:29;312.07;;;135.60;;
14066;SDS011;7108;42.684;23.350;2022-09-27T11:46:33;280.63;;;119.77;;
14066;SDS011;7108;42.684;23.350;2022-09-27T11:49:57;276.33;;;122.67;;
14066;SDS011;7108;42.684;23.350;2022-09-27T11:57:29;296.03;;;120.80;;
14066;SDS011;7108;42.684;23.350;2022-09-27T12:10:57;275.13;;;119.57;;
14066;SDS011;7108;42.684;23.350;2022-09-27T12:16:36;304.67;;;125.67;;
14066;SDS011;7108;42.684;23.350;2022-09-27T12:19:04;301.47;;;123.30;;
14066;SDS011;7108;42.684;23.350;2022-09-27T12:21:42;298.10;;;124.10;;
14066;SDS011;7108;42.684;23.350;2022-09-27T12:24:09;293.30;;;124.73;;
14066;SDS011;7108;42.684;23.350;2022-09-27T12:26:43;287.07;;;120.67;;
14066;SDS011;7108;42.684;23.350;2022-09-27T12:34:31;298.97;;;121.27;;
14066;SDS011;7108;42.684;23.350;2022-09-27T12:37:11;295.27;;;125.53;;
14066;SDS011;7108;42.684;23.350;2022-09-27T12:39:47;270.13;;;118.23;;
14066;SDS011;7108;42.684;23.350;2022-09-27T12:42:22;319.00;;;128.33;;
14066;SDS011;7108;42.684;23.350;2022-09-27T12:44:49;292.43;;;119.77;;
14066;SDS011;7108;42.684;23.350;2022-09-27T12:50:20;327.90;;;122.43;;
14066;SDS011;7108;42.684;23.350;2022-09-27T12:52:55;288.80;;;119.87;;
14066;SDS011;7108;42.684;23.350;2022-09-27T12:55:43;298.10;;;119.23;;
14066;SDS011;7108;42.684;23.350;2022-09-27T12:58:35;290.27;;;120.23;;
14066;SDS011;7108;42.684;23.350;2022-09-27T13:09:24;296.10;;;120.27;;
14066;SDS011;7108;42.684;23.350;2022-09-27T13:12:07;275.27;;;118.97;;
14066;SDS011;7108;42.684;23.350;2022-09-27T13:14:56;269.20;;;116.43;;
14066;SDS011;7108;42.684;23.350;2022-09-27T13:17:32;284.53;;;119.23;;
14066;SDS011;7108;42.684;23.350;2022-09-27T13:22:55;286.93;;;118.30;;
14066;SDS011;7108;42.684;23.350;2022-09-27T13:30:56;285.87;;;119.03;;
14066;SDS011;7108;42.684;23.350;2022-09-27T13:41:16;315.10;;;120.30;;
14066;SDS011;7108;42.684;23.350;2022-09-27T13:46:54;304.93;;;127.57;;
14066;SDS011;7108;42.684;23.350;2022-09-27T13:49:29;282.17;;;119.00;;
14066;SDS011;7108;42.684;23.350;2022-09-27T13:51:58;295.40;;;119.80;;
14066;SDS011;7108;42.684;23.350;2022-09-27T13:56:58;306.50;;;122.80;;
14066;SDS011;7108;42.684;23.350;2022-09-27T13:59:32;311.63;;;124.00;;
14066;SDS011;7108;42.684;23.350;2022-09-27T14:04:46;288.53;;;117.93;;
14066;SDS011;7108;42.684;23.350;2022-09-27T14:07:23;305.83;;;120.33;;
14066;SDS011;7108;42.684;23.350;2022-09-27T14:10:04;299.67;;;121.53;;
14066;SDS011;7108;42.684;23.350;2022-09-27T14:12:37;290.30;;;119.93;;
14066;SDS011;7108;42.684;23.350;2022-09-27T14:15:06;296.73;;;120.60;;
14066;SDS011;7108;42.684;23.350;2022-09-27T14:17:41;276.00;;;119.57;;
14066;SDS011;7108;42.684;23.350;2022-09-27T14:20:28;295.90;;;124.17;;
14066;SDS011;7108;42.684;23.350;2022-09-27T14:22:55;293.57;;;121.70;;
14066;SDS011;7108;42.684;23.350;2022-09-27T14:25:21;283.23;;;120.50;;
14066;SDS011;7108;42.684;23.350;2022-09-27T14:27:46;308.63;;;121.17;;
14066;SDS011;7108;42.684;23.350;2022-09-27T14:30:16;326.13;;;128.90;;
14066;SDS011;7108;42.684;23.350;2022-09-27T14:32:48;269.27;;;114.20;;
14066;SDS011;7108;42.684;23.350;2022-09-27T14:35:19;297.03;;;117.53;;
14066;SDS011;7108;42.684;23.350;2022-09-27T14:38:18;242.87;;;109.93;;
14066;SDS011;7108;42.684;23.350;2022-09-27T14:40:57;254.63;;;111.67;;
14066;SDS011;7108;42.684;23.350;2022-09-27T14:43:25;279.30;;;115.47;;
14066;SDS011;7108;42.684;23.350;2022-09-27T14:45:52;234.77;;;111.97;;
14066;SDS011;7108;42.684;23.350;2022-09-27T14:53:26;379.57;;;172.97;;
14066;SDS011;7108;42.684;23.350;2022-09-27T14:55:57;249.83;;;115.63;;
14066;SDS011;7108;42.684;23.350;2022-09-27T14:58:25;291.90;;;128.57;;
14066;SDS011;7108;42.684;23.350;2022-09-27T15:00:50;252.73;;;116.80;;
14066;SDS011;7108;42.684;23.350;2022-09-27T15:03:27;329.63;;;130.13;;
14066;SDS011;7108;42.684;23.350;2022-09-27T15:05:56;284.47;;;118.40;;
14066;SDS011;7108;42.684;23.350;2022-09-27T15:08:24;296.33;;;122.93;;
14066;SDS011;7108;42.684;23.350;2022-09-27T15:11:00;288.63;;;121.93;;
14066;SDS011;7108;42.684;23.350;2022-09-27T15:13:29;283.10;;;125.67;;
14066;SDS011;7108;42.684;23.350;2022-09-27T15:15:57;304.00;;;130.43;;
14066;SDS011;7108;42.684;23.350;2022-09-27T15:20:57;271.87;;;127.43;;
14066;SDS011;7108;42.684;23.350;2022-09-27T15:23:35;284.07;;;127.43;;
14066;SDS011;7108;42.684;23.350;2022-09-27T15:28:34;279.63;;;123.23;;
14066;SDS011;7108;42.684;23.350;2022-09-27T15:31:02;262.37;;;119.03;;
14066;SDS011;7108;42.684;23.350;2022-09-27T15:33:29;254.63;;;118.57;;
14066;SDS011;7108;42.684;23.350;2022-09-27T15:35:57;256.67;;;118.27;;
14066;SDS011;7108;42.684;23.350;2022-09-27T15:38:34;260.90;;;115.53;;
14066;SDS011;7108;42.684;23.350;2022-09-27T15:41:16;274.37;;;118.20;;
14066;SDS011;7108;42.684;23.350;2022-09-27T15:43:48;257.73;;;116.67;;
14066;SDS011;7108;42.684;23.350;2022-09-27T15:51:50;254.27;;;114.10;;
14066;SDS011;7108;42.684;23.350;2022-09-27T15:54:21;293.17;;;121.17;;
14066;SDS011;7108;42.684;23.350;2022-09-27T15:56:48;276.53;;;121.83;;
14066;SDS011;7108;42.684;23.350;2022-09-27T15:59:18;270.23;;;115.20;;
14066;SDS011;7108;42.684;23.350;2022-09-27T16:01:55;246.47;;;113.33;;
14066;SDS011;7108;42.684;23.350;2022-09-27T16:04:23;298.50;;;120.37;;
14066;SDS011;7108;42.684;23.350;2022-09-27T16:06:50;277.90;;;117.90;;
14066;SDS011;7108;42.684;23.350;2022-09-27T16:09:18;286.67;;;120.93;;
14066;SDS011;7108;42.684;23.350;2022-09-27T16:11:47;268.00;;;119.33;;
14066;SDS011;7108;42.684;23.350;2022-09-27T16:14:14;246.67;;;115.30;;
14066;SDS011;7108;42.684;23.350;2022-09-27T16:16:53;275.23;;;125.43;;
14066;SDS011;7108;42.684;23.350;2022-09-27T16:19:20;281.50;;;123.60;;
14066;SDS011;7108;42.684;23.350;2022-09-27T16:21:46;256.87;;;117.07;;
14066;SDS011;7108;42.684;23.350;2022-09-27T16:24:13;261.47;;;121.23;;
14066;SDS011;7108;42.684;23.350;2022-09-27T16:26:39;267.20;;;120.63;;
14066;SDS011;7108;42.684;23.350;2022-09-27T16:29:08;254.43;;;114.00;;
14066;SDS011;7108;42.684;23.350;2022-09-27T16:31:38;265.43;;;116.40;;
14066;SDS011;7108;42.684;23.350;2022-09-27T16:34:04;269.70;;;122.20;;
14066;SDS011;7108;42.684;23.350;2022-09-27T16:36:30;263.87;;;118.30;;
14066;SDS011;7108;42.684;23.350;2022-09-27T16:38:55;196.30;;;104.30;;
14066;SDS011;7108;42.684;23.350;2022-09-27T16:41:21;232.70;;;109.80;;
14066;SDS011;7108;42.684;23.350;2022-09-27T16:43:47;223.17;;;111.23;;
14066;SDS011;7108;42.684;23.350;2022-09-27T16:46:13;230.53;;;114.97;;
14066;SDS011;7108;42.684;23.350;2022-09-27T16:48:43;228.67;;;112.27;;
14066;SDS011;7108;42.684;23.350;2022-09-27T16:51:10;225.93;;;112.57;;
14066;SDS011;7108;42.684;23.350;2022-09-27T16:54:02;219.30;;;108.53;;
14066;SDS011;7108;42.684;23.350;2022-09-27T16:56:29;229.60;;;111.90;;
14066;SDS011;7108;42.684;23.350;2022-09-27T16:58:56;207.10;;;109.67;;
14066;SDS011;7108;42.684;23.350;2022-09-27T17:01:22;232.67;;;110.67;;
14066;SDS011;7108;42.684;23.350;2022-09-27T17:03:49;250.10;;;114.53;;
14066;SDS011;7108;42.684;23.350;2022-09-27T17:06:16;254.67;;;118.77;;
14066;SDS011;7108;42.684;23.350;2022-09-27T17:08:43;235.90;;;114.70;;